Time;durP1;ratioP1;P1;durP2;ratioP2;P2;SDS_P1;SDS_P2;PMS_P1;PMS_P2;Temp;Humidity;BMP_temperature;BMP_pressure;BME280_temperature;BME280_humidity;BME280_pressure;Samples;Min_cycle;Max_cycle;Signal;HPM_P1;HPM_P2
2022/11/14 00:01:15;;;;;;;21.10;11.90;;;3.90;99.90;;;;;;4932818;28;20038;-77
2022/11/14 00:03:41;;;;;;;18.52;11.05;;;4.00;99.90;;;;;;4964849;28;20035;-77
2022/11/14 00:06:07;;;;;;;17.58;11.35;;;3.90;99.90;;;;;;4947800;28;20034;-77
2022/11/14 00:08:32;;;;;;;18.25;11.13;;;3.80;99.90;;;;;;4941621;28;20099;-76
2022/11/14 00:10:58;;;;;;;19.30;11.10;;;3.80;99.90;;;;;;4979813;28;20533;-77
2022/11/14 00:13:24;;;;;;;17.55;11.93;;;3.70;99.90;;;;;;4959210;28;20039;-76
2022/11/14 00:15:53;;;;;;;20.63;11.88;;;3.80;99.90;;;;;;4977988;28;20034;-76
2022/11/14 00:18:18;;;;;;;17.58;12.18;;;3.80;99.90;;;;;;4946258;28;20062;-76
2022/11/14 00:20:47;;;;;;;19.08;11.93;;;3.80;99.90;;;;;;4950060;28;20445;-76
2022/11/14 00:23:12;;;;;;;19.25;11.73;;;3.80;99.90;;;;;;4957180;28;20121;-77
2022/11/14 00:25:38;;;;;;;16.00;10.93;;;3.70;99.90;;;;;;4948526;28;20102;-77
2022/11/14 00:28:03;;;;;;;17.83;11.25;;;3.60;99.90;;;;;;4934414;28;20154;-77
2022/11/14 00:30:29;;;;;;;20.38;11.63;;;3.50;99.90;;;;;;4954637;28;20031;-77
2022/11/14 00:32:54;;;;;;;17.58;11.60;;;3.30;99.90;;;;;;4935532;28;20051;-76
2022/11/14 00:35:20;;;;;;;19.40;12.02;;;3.40;99.90;;;;;;4960447;28;20042;-77
2022/11/14 00:37:45;;;;;;;18.45;11.63;;;3.40;99.90;;;;;;4950569;28;20046;-77
2022/11/14 00:40:13;;;;;;;23.35;12.35;;;3.40;99.90;;;;;;4941298;28;20405;-77
2022/11/14 00:42:38;;;;;;;19.10;12.27;;;3.50;99.90;;;;;;4960066;28;20074;-76
2022/11/14 00:45:05;;;;;;;23.48;12.75;;;3.50;99.90;;;;;;4926792;28;20487;-76
2022/11/14 00:47:30;;;;;;;21.75;13.18;;;3.50;99.90;;;;;;4977150;28;20090;-77
2022/11/14 00:49:56;;;;;;;19.33;11.52;;;3.40;99.90;;;;;;4946260;28;20042;-76
2022/11/14 00:52:21;;;;;;;18.95;12.50;;;3.40;99.90;;;;;;4960806;28;20043;-76
2022/11/14 00:54:47;;;;;;;21.20;12.73;;;3.40;99.90;;;;;;4950033;28;20149;-77
2022/11/14 00:57:12;;;;;;;13.60;10.38;;;3.50;99.90;;;;;;4959371;28;20635;-76
2022/11/14 00:59:38;;;;;;;17.70;12.23;;;3.50;99.90;;;;;;4946168;28;20045;-77
2022/11/14 01:02:03;;;;;;;15.85;11.60;;;3.50;99.90;;;;;;4932496;28;20041;-76
2022/11/14 01:04:29;;;;;;;16.40;11.05;;;3.50;99.90;;;;;;4943617;28;20034;-76
2022/11/14 01:06:54;;;;;;;18.08;12.30;;;3.50;99.90;;;;;;4945473;28;20043;-77
2022/11/14 01:09:20;;;;;;;15.63;9.35;;;3.50;99.90;;;;;;4976995;28;20035;-77
2022/11/14 01:11:45;;;;;;;20.25;12.18;;;3.50;99.90;;;;;;4949843;28;20422;-77
2022/11/14 01:14:11;;;;;;;17.45;10.98;;;3.40;99.90;;;;;;4924776;28;20554;-77
2022/11/14 01:16:36;;;;;;;15.10;8.85;;;3.30;99.90;;;;;;4962179;28;20038;-77
2022/11/14 01:19:02;;;;;;;18.08;12.07;;;3.30;99.90;;;;;;4933005;28;20057;-77
2022/11/14 01:21:28;;;;;;;16.45;10.95;;;3.10;99.90;;;;;;4919727;28;20063;-76
2022/11/14 01:23:53;;;;;;;15.75;11.32;;;3.10;99.90;;;;;;4949454;28;20145;-77
2022/11/14 01:26:19;;;;;;;16.58;10.55;;;3.20;99.90;;;;;;4961881;28;20118;-76
2022/11/14 01:28:44;;;;;;;19.73;12.02;;;3.10;99.90;;;;;;4961531;28;20114;-77
2022/11/14 01:31:15;;;;;;;20.38;11.35;;;2.90;99.90;;;;;;4933487;28;20030;-77
2022/11/14 01:33:41;;;;;;;17.70;10.65;;;2.80;99.90;;;;;;4966281;28;20030;-76
2022/11/14 01:36:07;;;;;;;18.58;11.45;;;2.80;99.90;;;;;;4947044;28;20042;-76
2022/11/14 01:38:33;;;;;;;17.75;11.38;;;2.90;99.90;;;;;;4960614;28;20367;-76
2022/11/14 01:40:58;;;;;;;17.77;11.77;;;2.80;99.90;;;;;;4949993;28;20081;-76
2022/11/14 01:43:25;;;;;;;18.95;12.65;;;2.80;99.90;;;;;;4965322;28;20114;-77
2022/11/14 01:45:52;;;;;;;18.30;11.82;;;2.80;99.90;;;;;;4960310;28;20043;-76
2022/11/14 01:48:45;;;;;;;16.17;10.35;;;2.80;99.90;;;;;;4981353;28;20047;-77
2022/11/14 01:51:53;;;;;;;16.98;12.02;;;2.80;99.90;;;;;;4951908;28;20047;-76
2022/11/14 01:54:31;;;;;;;18.42;11.25;;;2.70;99.90;;;;;;4950495;28;20069;-76
2022/11/14 01:57:00;;;;;;;17.73;11.73;;;2.60;99.90;;;;;;4980436;28;20049;-76
2022/11/14 01:59:32;;;;;;;19.50;12.15;;;2.60;99.90;;;;;;4963175;28;20030;-76
2022/11/14 02:02:01;;;;;;;11.90;8.65;;;2.60;99.90;;;;;;4979457;28;20031;-76
2022/11/14 02:04:28;;;;;;;17.55;12.00;;;2.60;99.90;;;;;;4935388;28;20490;-76
2022/11/14 02:06:56;;;;;;;17.77;11.20;;;2.60;99.90;;;;;;4961697;28;20505;-76
2022/11/14 02:09:21;;;;;;;15.05;10.70;;;2.50;99.90;;;;;;4942813;28;20042;-76
2022/11/14 02:11:47;;;;;;;18.85;11.93;;;2.40;99.90;;;;;;4963463;28;20035;-76
2022/11/14 02:14:13;;;;;;;17.17;11.45;;;2.40;99.90;;;;;;4964197;28;20082;-76
2022/11/14 02:16:39;;;;;;;17.67;11.23;;;2.50;99.90;;;;;;4964206;28;20037;-77
2022/11/14 02:19:04;;;;;;;17.77;11.88;;;2.50;99.90;;;;;;4942085;28;20545;-77
2022/11/14 02:21:30;;;;;;;20.35;11.02;;;2.60;99.90;;;;;;4943423;28;20050;-76
2022/11/14 02:23:55;;;;;;;18.48;11.20;;;2.70;99.90;;;;;;4964705;28;20081;-77
2022/11/14 02:26:21;;;;;;;17.67;11.60;;;2.70;99.90;;;;;;4944011;28;20027;-76
2022/11/14 02:28:47;;;;;;;20.58;11.70;;;2.60;99.90;;;;;;4948205;28;20460;-76
2022/11/14 02:31:13;;;;;;;15.63;10.15;;;2.50;99.90;;;;;;4943486;28;20058;-76
2022/11/14 02:33:39;;;;;;;20.75;11.60;;;2.40;99.90;;;;;;4962894;28;20038;-76
2022/11/14 02:36:05;;;;;;;15.52;10.85;;;2.40;99.90;;;;;;4933337;28;20090;-76
2022/11/14 02:38:30;;;;;;;15.57;11.07;;;2.40;99.90;;;;;;4978708;28;20098;-76
2022/11/14 02:40:57;;;;;;;11.45;7.47;;;2.50;99.90;;;;;;4965156;28;20804;-76
2022/11/14 02:43:23;;;;;;;13.85;10.55;;;2.30;99.90;;;;;;4935316;28;20145;-76
2022/11/14 02:45:48;;;;;;;15.18;11.25;;;2.40;99.90;;;;;;4965480;28;20683;-76
2022/11/14 02:48:14;;;;;;;16.90;11.15;;;2.40;99.90;;;;;;4967123;28;20031;-76
2022/11/14 02:50:39;;;;;;;17.67;11.25;;;2.40;99.90;;;;;;4950707;28;20041;-77
2022/11/14 02:53:05;;;;;;;16.90;11.02;;;2.30;99.90;;;;;;4946778;28;20082;-77
2022/11/14 02:55:31;;;;;;;17.15;10.75;;;2.30;99.90;;;;;;4976352;28;20101;-76
2022/11/14 02:57:56;;;;;;;16.17;11.68;;;2.30;99.90;;;;;;4931910;28;20694;-77
2022/11/14 03:00:22;;;;;;;21.95;12.07;;;2.30;99.90;;;;;;4949260;28;20410;-77
2022/11/14 03:02:47;;;;;;;15.75;11.32;;;2.30;99.90;;;;;;4960835;28;20467;-76
2022/11/14 03:05:13;;;;;;;17.98;12.57;;;2.20;99.90;;;;;;4946417;28;20063;-76
2022/11/14 03:07:38;;;;;;;17.92;12.73;;;2.20;99.90;;;;;;4979548;28;20042;-76
2022/11/14 03:10:04;;;;;;;18.83;12.70;;;2.20;99.90;;;;;;4976804;28;20094;-76
2022/11/14 03:12:30;;;;;;;18.73;11.57;;;2.20;99.90;;;;;;4949757;28;20039;-77
2022/11/14 03:14:55;;;;;;;19.13;12.40;;;2.20;99.90;;;;;;4928355;28;20049;-76
2022/11/14 03:17:23;;;;;;;17.17;11.95;;;2.20;99.90;;;;;;4962052;28;20122;-76
2022/11/14 03:19:49;;;;;;;17.85;10.63;;;2.10;99.90;;;;;;4980082;28;20063;-76
2022/11/14 03:22:14;;;;;;;19.48;12.60;;;2.10;99.90;;;;;;4929152;28;20102;-76
2022/11/14 03:24:40;;;;;;;18.70;11.90;;;2.10;99.90;;;;;;4946168;28;20035;-76
2022/11/14 03:27:06;;;;;;;22.10;13.20;;;2.10;99.90;;;;;;4978325;28;20049;-76
2022/11/14 03:29:31;;;;;;;17.35;11.82;;;2.10;99.90;;;;;;4982045;28;20034;-76
2022/11/14 03:31:57;;;;;;;18.63;12.48;;;1.90;99.90;;;;;;4964522;28;20460;-76
2022/11/14 03:34:22;;;;;;;19.23;12.40;;;1.90;99.90;;;;;;4945609;28;20054;-76
2022/11/14 03:36:48;;;;;;;17.98;11.35;;;1.90;99.90;;;;;;4965102;28;20054;-76
2022/11/14 03:39:13;;;;;;;15.27;11.68;;;1.90;99.90;;;;;;4959775;28;20059;-76
2022/11/14 03:41:39;;;;;;;19.02;11.05;;;1.80;99.90;;;;;;4963242;28;20122;-77
2022/11/14 03:44:04;;;;;;;18.27;11.50;;;1.70;99.90;;;;;;4932596;28;20027;-77
2022/11/14 03:46:30;;;;;;;16.55;11.35;;;1.80;99.90;;;;;;4961796;28;20445;-77
2022/11/14 03:48:55;;;;;;;17.13;11.20;;;1.80;99.90;;;;;;4932905;28;20414;-76
2022/11/14 03:51:21;;;;;;;18.80;12.25;;;1.80;99.90;;;;;;4958405;28;20495;-76
2022/11/14 03:53:46;;;;;;;20.58;12.10;;;1.80;99.90;;;;;;4982474;28;20031;-76
2022/11/14 03:56:12;;;;;;;18.10;12.07;;;1.80;99.90;;;;;;4945602;28;20031;-76
2022/11/14 03:58:37;;;;;;;18.50;12.27;;;1.90;99.90;;;;;;4960166;28;20042;-78
2022/11/14 04:01:03;;;;;;;14.55;11.07;;;2.00;99.90;;;;;;4949222;28;20050;-78
2022/11/14 04:03:28;;;;;;;17.42;11.57;;;1.90;99.90;;;;;;4962970;28;20154;-78
2022/11/14 04:05:54;;;;;;;15.77;11.02;;;1.90;99.90;;;;;;4976882;28;20038;-78
2022/11/14 04:08:19;;;;;;;23.83;12.55;;;1.90;99.90;;;;;;4965115;28;20110;-78
2022/11/14 04:10:48;;;;;;;22.92;12.18;;;1.90;99.90;;;;;;4948982;28;20046;-78
2022/11/14 04:13:13;;;;;;;17.70;11.73;;;2.00;99.90;;;;;;4943130;28;20395;-78
2022/11/14 04:15:39;;;;;;;19.42;11.75;;;1.90;99.90;;;;;;4946902;28;20058;-78
2022/11/14 04:18:05;;;;;;;19.90;11.30;;;1.90;99.90;;;;;;4948127;28;20035;-79
2022/11/14 04:20:30;;;;;;;17.00;11.43;;;1.80;99.90;;;;;;4961453;28;20085;-78
2022/11/14 04:22:56;;;;;;;13.10;7.57;;;1.60;99.90;;;;;;4945583;28;20041;-78
2022/11/14 04:25:21;;;;;;;16.77;11.52;;;1.60;99.90;;;;;;4928471;28;20039;-78
2022/11/14 04:27:47;;;;;;;16.85;10.90;;;1.70;99.90;;;;;;4961628;28;20058;-78
2022/11/14 04:30:12;;;;;;;15.32;10.82;;;1.80;99.90;;;;;;4960105;28;20035;-78
2022/11/14 04:32:38;;;;;;;22.83;13.27;;;1.70;99.90;;;;;;4960167;28;20512;-78
2022/11/14 04:35:04;;;;;;;15.93;11.38;;;1.60;99.90;;;;;;4945348;28;20030;-78
2022/11/14 04:37:29;;;;;;;18.50;12.27;;;1.50;99.90;;;;;;4945955;28;20142;-78
2022/11/14 04:40:01;;;;;;;16.02;12.32;;;1.50;99.90;;;;;;4963147;28;20578;-79
2022/11/14 04:42:27;;;;;;;19.80;13.50;;;1.40;99.90;;;;;;4947772;28;20042;-79
2022/11/14 04:44:52;;;;;;;19.55;13.82;;;1.40;99.90;;;;;;4975747;28;20042;-79
2022/11/14 04:47:18;;;;;;;20.35;12.80;;;1.40;99.90;;;;;;4980035;28;20055;-79
2022/11/14 04:49:43;;;;;;;21.85;13.50;;;1.60;99.90;;;;;;4950056;28;20139;-79
2022/11/14 04:52:09;;;;;;;14.85;9.85;;;1.70;99.90;;;;;;4915927;28;20047;-78
2022/11/14 04:54:34;;;;;;;15.27;10.20;;;1.70;99.90;;;;;;4959618;28;20039;-78
2022/11/14 04:57:00;;;;;;;12.02;8.98;;;1.70;99.90;;;;;;4981243;28;20089;-77
2022/11/14 04:59:25;;;;;;;17.30;12.50;;;1.90;99.90;;;;;;4949356;28;20550;-78
2022/11/14 05:01:51;;;;;;;17.83;11.80;;;1.90;99.90;;;;;;4949888;28;20100;-78
2022/11/14 05:04:16;;;;;;;20.58;12.15;;;1.90;99.90;;;;;;4958363;28;20050;-78
2022/11/14 05:06:42;;;;;;;16.83;10.95;;;1.80;99.90;;;;;;4964693;28;20398;-78
2022/11/14 05:09:07;;;;;;;16.23;10.82;;;2.10;99.90;;;;;;4977929;28;20442;-78
2022/11/14 05:11:33;;;;;;;16.35;10.52;;;2.00;99.90;;;;;;4976350;28;20444;-78
2022/11/14 05:14:00;;;;;;;16.05;10.30;;;2.10;99.90;;;;;;4946097;28;20477;-78
2022/11/14 05:16:26;;;;;;;17.08;11.55;;;2.10;99.90;;;;;;4959293;28;20042;-78
2022/11/14 05:18:55;;;;;;;16.80;11.65;;;1.80;99.90;;;;;;4962138;28;20383;-78
2022/11/14 05:21:20;;;;;;;15.25;9.70;;;1.60;99.90;;;;;;4979937;28;20039;-78
2022/11/14 05:23:46;;;;;;;12.82;9.57;;;1.70;99.90;;;;;;4947753;28;20039;-78
2022/11/14 05:26:14;;;;;;;14.77;10.63;;;1.90;99.90;;;;;;4928743;28;20085;-78
2022/11/14 05:28:40;;;;;;;13.63;9.07;;;2.00;99.90;;;;;;4950910;28;20035;-78
2022/11/14 05:31:13;;;;;;;11.02;6.40;;;2.20;99.90;;;;;;4964283;28;20475;-78
2022/11/14 05:33:39;;;;;;;11.73;8.07;;;2.60;99.90;;;;;;4948268;28;20386;-78
2022/11/14 05:36:06;;;;;;;9.27;6.43;;;2.80;99.90;;;;;;4949166;28;20121;-78
2022/11/14 05:38:32;;;;;;;11.48;7.10;;;2.90;99.90;;;;;;4964122;28;20518;-78
2022/11/14 05:40:57;;;;;;;11.88;7.13;;;2.90;99.90;;;;;;4949112;28;20035;-78
2022/11/14 05:43:23;;;;;;;11.45;7.57;;;2.90;99.90;;;;;;4944834;28;20034;-78
2022/11/14 05:45:49;;;;;;;11.20;7.65;;;2.90;99.90;;;;;;4950482;28;20506;-78
2022/11/14 05:48:14;;;;;;;15.30;9.15;;;2.80;99.90;;;;;;4962139;28;20562;-78
2022/11/14 05:50:40;;;;;;;15.75;10.20;;;2.70;99.90;;;;;;4949290;28;20403;-78
2022/11/14 05:53:05;;;;;;;15.32;9.98;;;2.50;99.90;;;;;;4960992;28;20031;-78
2022/11/14 05:55:31;;;;;;;16.83;10.48;;;2.30;99.90;;;;;;4947602;28;20090;-78
2022/11/14 05:57:57;;;;;;;16.83;10.90;;;2.30;99.90;;;;;;4934310;28;20034;-78
2022/11/14 06:00:23;;;;;;;19.58;11.00;;;2.30;99.90;;;;;;4975584;28;20035;-78
2022/11/14 06:02:52;;;;;;;19.50;10.95;;;2.30;99.90;;;;;;4964510;28;20039;-78
2022/11/14 06:05:19;;;;;;;18.75;11.48;;;2.30;99.90;;;;;;4962095;28;20038;-78
2022/11/14 06:07:45;;;;;;;20.13;10.55;;;2.30;99.90;;;;;;4963107;28;20039;-78
2022/11/14 06:10:11;;;;;;;17.00;10.40;;;2.40;99.90;;;;;;4977894;28;20034;-78
2022/11/14 06:12:36;;;;;;;15.38;10.23;;;2.50;99.90;;;;;;4970393;28;20105;-78
2022/11/14 06:15:02;;;;;;;18.55;10.60;;;2.60;99.90;;;;;;4939625;28;20093;-78
2022/11/14 06:17:27;;;;;;;14.70;9.77;;;2.60;99.90;;;;;;4981059;28;20453;-79
2022/11/14 06:19:53;;;;;;;18.27;10.70;;;2.70;99.90;;;;;;4970722;28;20039;-77
2022/11/14 06:22:18;;;;;;;15.15;10.55;;;2.80;99.90;;;;;;4962180;28;20458;-77
2022/11/14 06:24:44;;;;;;;16.88;10.85;;;2.70;99.90;;;;;;4959213;28;20101;-78
2022/11/14 06:27:09;;;;;;;16.02;10.90;;;2.70;99.90;;;;;;4933040;28;20463;-78
2022/11/14 06:29:35;;;;;;;18.17;10.50;;;2.70;99.90;;;;;;4966597;28;20466;-78
2022/11/14 06:32:00;;;;;;;19.65;11.50;;;2.70;99.90;;;;;;4935003;28;20031;-77
2022/11/14 06:34:26;;;;;;;19.58;11.25;;;2.90;99.90;;;;;;4980120;28;20077;-78
2022/11/14 06:36:52;;;;;;;20.10;12.23;;;3.00;99.90;;;;;;4969673;28;20126;-77
2022/11/14 06:39:17;;;;;;;17.77;11.88;;;3.10;99.90;;;;;;4981302;28;20035;-77
2022/11/14 06:41:43;;;;;;;24.05;12.73;;;3.10;99.90;;;;;;4947882;28;20483;-77
2022/11/14 06:44:08;;;;;;;20.38;12.15;;;3.20;99.90;;;;;;4947234;28;20031;-78
2022/11/14 06:46:34;;;;;;;16.77;11.30;;;3.20;99.90;;;;;;4968191;28;20029;-77
2022/11/14 06:48:59;;;;;;;19.20;12.27;;;3.20;99.90;;;;;;4934182;28;20086;-78
2022/11/14 06:51:25;;;;;;;18.35;11.52;;;3.20;99.90;;;;;;4961698;28;20331;-78
2022/11/14 06:53:50;;;;;;;19.50;11.65;;;3.10;99.90;;;;;;4962396;28;20046;-78
2022/11/14 06:56:16;;;;;;;22.92;13.35;;;3.10;99.90;;;;;;4984020;28;20046;-78
2022/11/14 06:58:45;;;;;;;19.02;11.50;;;3.20;99.90;;;;;;4950960;28;20039;-78
2022/11/14 07:01:15;;;;;;;17.15;11.07;;;3.30;99.90;;;;;;4921254;28;20486;-78
2022/11/14 07:03:41;;;;;;;15.15;9.50;;;3.30;99.90;;;;;;4966563;28;20082;-79
2022/11/14 07:06:08;;;;;;;18.08;10.50;;;3.30;99.90;;;;;;4932552;28;20042;-78
2022/11/14 07:08:33;;;;;;;18.05;10.68;;;3.30;99.90;;;;;;4950626;28;20515;-78
2022/11/14 07:11:10;;;;;;;18.15;9.43;;;3.40;99.90;;;;;;4939290;28;20101;-78
2022/11/14 07:13:36;;;;;;;16.15;8.88;;;3.50;99.90;;;;;;4938181;28;20035;-78
2022/11/14 07:16:01;;;;;;;14.65;9.63;;;3.60;99.90;;;;;;4945614;28;20031;-78
2022/11/14 07:18:30;;;;;;;14.38;9.43;;;3.70;99.90;;;;;;4951307;28;20055;-78
2022/11/14 07:21:00;;;;;;;14.68;8.30;;;3.80;99.90;;;;;;4964231;28;20046;-78
2022/11/14 07:23:26;;;;;;;11.05;7.35;;;3.90;99.90;;;;;;4968001;28;20030;-77
2022/11/14 07:25:51;;;;;;;13.70;8.00;;;4.00;99.90;;;;;;4968386;28;20031;-78
2022/11/14 07:28:17;;;;;;;15.02;9.18;;;4.00;99.90;;;;;;4950678;28;20053;-77
2022/11/14 07:30:42;;;;;;;13.38;7.50;;;4.10;99.90;;;;;;4948285;28;20078;-78
2022/11/14 07:33:09;;;;;;;14.43;8.73;;;4.20;99.90;;;;;;4947930;28;20049;-78
2022/11/14 07:35:34;;;;;;;14.23;8.63;;;4.30;99.90;;;;;;4977021;28;20031;-77
2022/11/14 07:38:01;;;;;;;13.18;8.80;;;4.30;99.90;;;;;;4941754;28;20683;-77
2022/11/14 07:40:26;;;;;;;13.55;8.82;;;4.30;99.90;;;;;;4949472;28;20070;-78
2022/11/14 07:42:59;;;;;;;18.13;11.38;;;4.40;99.90;;;;;;4959789;28;20100;-77
2022/11/14 07:45:27;;;;;;;15.10;9.40;;;4.40;99.90;;;;;;4963417;28;20031;-78
2022/11/14 07:47:56;;;;;;;12.00;8.02;;;4.40;99.90;;;;;;4974048;28;20126;-78
2022/11/14 07:50:22;;;;;;;17.20;10.15;;;4.40;99.90;;;;;;4949091;28;20565;-77
2022/11/14 07:52:51;;;;;;;13.73;8.57;;;4.50;99.90;;;;;;4978743;28;20723;-78
2022/11/14 07:55:18;;;;;;;18.42;9.88;;;4.60;99.90;;;;;;4959547;28;20027;-78
2022/11/14 07:57:44;;;;;;;13.85;9.25;;;4.70;99.90;;;;;;4933645;28;20109;-78
2022/11/14 08:00:11;;;;;;;13.27;8.27;;;4.80;99.90;;;;;;4949359;28;20815;-78
2022/11/14 08:02:36;;;;;;;17.23;9.48;;;4.90;99.90;;;;;;4960543;28;20665;-78
2022/11/14 08:05:03;;;;;;;15.02;9.27;;;4.90;99.90;;;;;;4932952;28;20046;-78
2022/11/14 08:07:28;;;;;;;18.35;11.25;;;5.00;99.90;;;;;;4949122;28;20039;-78
2022/11/14 08:09:55;;;;;;;12.23;8.63;;;5.10;99.90;;;;;;4960098;28;20076;-79
2022/11/14 08:12:20;;;;;;;12.05;8.73;;;5.20;99.90;;;;;;4949796;28;20042;-79
2022/11/14 08:14:46;;;;;;;15.82;9.60;;;5.30;99.90;;;;;;4947872;28;20740;-77
2022/11/14 08:17:11;;;;;;;16.80;11.07;;;5.40;99.90;;;;;;4943024;28;20070;-76
2022/11/14 08:19:38;;;;;;;16.27;10.73;;;5.50;99.90;;;;;;4973987;28;20036;-77
2022/11/14 08:22:05;;;;;;;16.30;10.65;;;5.50;99.90;;;;;;4962853;28;20020;-76
2022/11/14 08:24:31;;;;;;;23.75;12.85;;;5.70;99.90;;;;;;4958934;28;20532;-77
2022/11/14 08:26:56;;;;;;;17.80;11.48;;;5.70;99.90;;;;;;4942285;28;20068;-77
2022/11/14 08:29:22;;;;;;;15.15;10.30;;;5.90;99.90;;;;;;4942751;28;20386;-77
2022/11/14 08:31:47;;;;;;;15.35;9.30;;;6.00;99.90;;;;;;4961989;28;20035;-78
2022/11/14 08:34:13;;;;;;;15.40;9.55;;;6.00;99.90;;;;;;4947775;28;20880;-77
2022/11/14 08:36:39;;;;;;;13.80;8.98;;;6.10;99.90;;;;;;4972745;28;20185;-77
2022/11/14 08:39:04;;;;;;;18.73;11.20;;;6.40;99.90;;;;;;4963326;28;20053;-77
2022/11/14 08:41:30;;;;;;;13.02;8.07;;;6.40;99.90;;;;;;4977213;28;20031;-77
2022/11/14 08:43:55;;;;;;;15.18;9.73;;;6.20;99.90;;;;;;4948762;28;20039;-77
2022/11/14 08:46:21;;;;;;;17.35;9.95;;;6.20;99.90;;;;;;4933904;28;20070;-78
2022/11/14 08:48:46;;;;;;;21.83;12.65;;;6.30;99.90;;;;;;4949827;28;20058;-77
2022/11/14 08:51:12;;;;;;;22.50;13.98;;;6.30;99.90;;;;;;4915091;28;20118;-78
2022/11/14 08:53:37;;;;;;;21.85;12.02;;;6.50;99.90;;;;;;4955097;28;20512;-77
2022/11/14 08:56:03;;;;;;;19.92;12.55;;;6.50;99.90;;;;;;4934925;28;20030;-78
2022/11/14 08:58:29;;;;;;;23.85;13.68;;;6.60;99.90;;;;;;4961567;28;20050;-77
2022/11/14 09:00:59;;;;;;;17.48;11.65;;;6.80;99.90;;;;;;4954036;28;20062;-78
2022/11/14 09:03:25;;;;;;;18.58;12.57;;;7.00;99.90;;;;;;4960974;28;20046;-77
2022/11/14 09:05:51;;;;;;;18.02;11.52;;;7.20;99.90;;;;;;4961703;28;20051;-78
2022/11/14 09:08:17;;;;;;;21.00;13.15;;;7.20;99.90;;;;;;4959651;28;20455;-78
2022/11/14 09:10:42;;;;;;;23.73;13.15;;;7.30;99.90;;;;;;4963241;28;20035;-78
2022/11/14 09:13:08;;;;;;;25.23;14.20;;;7.30;99.90;;;;;;4944599;28;20420;-78
2022/11/14 09:15:33;;;;;;;18.90;11.90;;;7.30;99.90;;;;;;4961021;28;20478;-78
2022/11/14 09:17:59;;;;;;;22.23;12.52;;;7.30;99.90;;;;;;4947135;28;20118;-78
2022/11/14 09:20:25;;;;;;;25.67;15.93;;;7.40;99.90;;;;;;4953428;28;20054;-78
2022/11/14 09:22:53;;;;;;;22.98;13.38;;;7.40;99.90;;;;;;4942832;28;20035;-78
2022/11/14 09:25:20;;;;;;;26.05;16.30;;;7.40;99.90;;;;;;4959159;28;20035;-78
2022/11/14 09:27:46;;;;;;;24.50;16.25;;;7.40;99.90;;;;;;4960746;28;20118;-78
2022/11/14 09:30:12;;;;;;;21.73;14.18;;;7.40;99.90;;;;;;4944419;28;20355;-78
2022/11/14 09:32:38;;;;;;;22.98;13.73;;;7.60;99.90;;;;;;4947676;28;20085;-78
2022/11/14 09:35:04;;;;;;;23.55;13.25;;;7.50;99.90;;;;;;4943730;28;20028;-78
2022/11/14 09:37:30;;;;;;;20.63;11.88;;;7.60;99.90;;;;;;4958878;28;20046;-78
2022/11/14 09:39:55;;;;;;;25.48;15.70;;;7.90;99.90;;;;;;4966813;28;20042;-78
2022/11/14 09:43:06;;;;;;;22.55;12.00;;;7.80;99.90;;;;;;4942262;28;20027;-78
2022/11/14 09:45:33;;;;;;;24.90;15.25;;;7.90;99.90;;;;;;4964243;28;20031;-78
2022/11/14 09:48:14;;;;;;;22.15;12.68;;;8.00;99.90;;;;;;4931376;28;20138;-78
2022/11/14 09:50:45;;;;;;;25.98;15.95;;;8.00;99.90;;;;;;4952622;28;20037;-78
2022/11/14 09:53:34;;;;;;;23.25;12.57;;;8.00;99.90;;;;;;4919978;28;20031;-78
2022/11/14 09:55:59;;;;;;;28.23;16.05;;;8.00;99.90;;;;;;4974418;28;20400;-78
2022/11/14 09:58:25;;;;;;;23.50;12.88;;;8.10;99.90;;;;;;4975336;28;20035;-78
2022/11/14 10:00:55;;;;;;;21.08;11.52;;;8.20;99.90;;;;;;4980063;28;20057;-79
2022/11/14 10:03:24;;;;;;;27.33;16.30;;;8.10;99.90;;;;;;4966795;28;20058;-79
2022/11/14 10:06:08;;;;;;;27.63;16.52;;;8.30;99.90;;;;;;4979485;28;20105;-79
2022/11/14 10:08:42;;;;;;;24.02;13.38;;;8.20;99.90;;;;;;4965662;28;20523;-79
2022/11/14 10:11:12;;;;;;;27.33;15.13;;;8.20;99.90;;;;;;4951661;28;20034;-79
2022/11/14 10:14:07;;;;;;;25.30;14.63;;;8.30;99.90;;;;;;4962186;28;20035;-79
2022/11/14 10:16:46;;;;;;;26.67;15.57;;;8.30;99.90;;;;;;4978163;28;20163;-79
2022/11/14 10:19:33;;;;;;;23.75;14.23;;;8.30;99.90;;;;;;4963662;28;20046;-79
2022/11/14 10:22:17;;;;;;;25.85;12.05;;;8.40;99.90;;;;;;4963342;28;22036;-79
2022/11/14 10:25:02;;;;;;;22.33;11.88;;;8.40;99.90;;;;;;4963935;28;20034;-79
2022/11/14 10:27:44;;;;;;;20.65;11.02;;;8.40;99.90;;;;;;4944090;28;20521;-79
2022/11/14 10:30:14;;;;;;;14.93;8.80;;;8.50;99.90;;;;;;4961822;28;20045;-79
2022/11/14 10:32:45;;;;;;;13.25;8.52;;;8.50;99.90;;;;;;4967104;28;20027;-79
2022/11/14 10:35:22;;;;;;;14.20;9.23;;;8.50;99.90;;;;;;4962905;28;20119;-79
2022/11/14 10:38:21;;;;;;;13.18;8.65;;;8.60;99.90;;;;;;4951063;28;20039;-79
2022/11/14 10:40:51;;;;;;;15.57;8.93;;;8.60;99.90;;;;;;4946042;28;20098;-79
2022/11/14 10:43:28;;;;;;;15.27;8.90;;;8.70;99.90;;;;;;4967075;28;20391;-79
2022/11/14 10:46:13;;;;;;;15.57;8.38;;;8.70;99.90;;;;;;4952617;28;20061;-79
2022/11/14 10:48:43;;;;;;;14.40;8.70;;;8.70;99.90;;;;;;4950723;28;20130;-79
2022/11/14 10:51:32;;;;;;;14.68;9.05;;;8.80;99.90;;;;;;4955930;28;20167;-79
2022/11/14 10:54:09;;;;;;;14.10;8.68;;;8.80;99.90;;;;;;4950129;28;20494;-79
2022/11/14 10:56:48;;;;;;;13.68;8.02;;;8.80;99.90;;;;;;4948699;28;20035;-80
2022/11/14 10:59:13;;;;;;;15.02;7.65;;;8.90;99.90;;;;;;4955523;28;20145;-80
2022/11/14 11:01:40;;;;;;;13.98;8.27;;;8.90;99.90;;;;;;4965078;28;20604;-80
2022/11/14 11:04:35;;;;;;;12.63;8.20;;;8.80;99.90;;;;;;4960614;28;20039;-80
2022/11/14 11:07:07;;;;;;;15.98;9.18;;;8.90;99.90;;;;;;4936411;28;20031;-79
2022/11/14 11:12:44;;;;;;;13.52;7.63;;;9.00;99.90;;;;;;4946042;28;21012;-80
2022/11/14 11:15:19;;;;;;;12.73;8.43;;;9.10;99.90;;;;;;4935233;28;20042;-79
2022/11/14 11:18:00;;;;;;;15.52;9.48;;;9.20;99.90;;;;;;4964799;28;20046;-80
2022/11/14 11:20:27;;;;;;;14.10;9.07;;;9.30;99.90;;;;;;4947746;28;20030;-80
2022/11/14 11:23:06;;;;;;;16.45;9.85;;;9.30;99.90;;;;;;4951015;28;20388;-80
2022/11/14 11:25:32;;;;;;;16.80;9.77;;;9.50;99.90;;;;;;4948031;28;20114;-79
2022/11/14 11:28:19;;;;;;;13.13;7.68;;;9.60;99.90;;;;;;4934696;28;20102;-80
2022/11/14 11:31:00;;;;;;;18.80;11.40;;;9.50;99.90;;;;;;4947879;28;20494;-80
2022/11/14 11:33:28;;;;;;;15.45;9.85;;;9.60;99.90;;;;;;4979278;28;20041;-80
2022/11/14 11:36:05;;;;;;;12.80;8.00;;;9.80;99.90;;;;;;4964593;28;20085;-80
2022/11/14 11:38:31;;;;;;;16.40;10.07;;;9.80;99.90;;;;;;4936391;28;20490;-82
2022/11/14 11:41:14;;;;;;;17.00;10.68;;;9.90;99.90;;;;;;4960628;28;20031;-80
2022/11/14 11:43:46;;;;;;;13.07;9.02;;;10.00;99.90;;;;;;4978980;28;20058;-80
2022/11/14 11:46:19;;;;;;;17.90;9.00;;;10.20;99.90;;;;;;4960269;28;20031;-80
2022/11/14 11:48:45;;;;;;;16.38;9.98;;;10.30;99.90;;;;;;4950624;28;20146;-80
2022/11/14 11:51:16;;;;;;;18.73;10.57;;;10.40;99.90;;;;;;4949673;28;20119;-80
2022/11/14 11:53:45;;;;;;;18.25;10.65;;;10.40;99.90;;;;;;4976913;28;20037;-80
2022/11/14 11:56:13;;;;;;;15.52;10.45;;;10.30;99.90;;;;;;4959522;28;20027;-80
2022/11/14 11:58:54;;;;;;;15.40;6.97;;;10.50;99.90;;;;;;4963434;28;20027;-80
2022/11/14 12:01:20;;;;;;;22.58;11.43;;;10.70;99.90;;;;;;4947905;28;20027;-80
2022/11/14 12:03:50;;;;;;;17.73;9.60;;;10.70;99.90;;;;;;4919126;28;20047;-80
2022/11/14 12:06:26;;;;;;;17.20;11.63;;;10.70;99.90;;;;;;4943056;28;20083;-80
2022/11/14 12:09:02;;;;;;;;;;;10.90;99.90;;;;;;4948919;28;20069;-81
2022/11/14 12:11:37;;;;;;;18.63;10.38;;;11.10;99.90;;;;;;4931807;28;19921;-80
2022/11/14 12:14:11;;;;;;;15.45;10.80;;;11.00;99.90;;;;;;4960388;28;20421;-81
2022/11/14 12:17:10;;;;;;;19.23;12.10;;;11.10;99.90;;;;;;4947189;28;20035;-81
2022/11/14 12:20:00;;;;;;;18.90;10.48;;;11.20;99.90;;;;;;4948369;28;20130;-81
2022/11/14 12:22:54;;;;;;;14.90;9.73;;;11.10;99.90;;;;;;4942670;28;20031;-81
2022/11/14 12:25:48;;;;;;;15.52;8.93;;;11.10;99.90;;;;;;4948703;28;20043;-81
2022/11/14 12:28:43;;;;;;;15.90;9.90;;;11.20;99.90;;;;;;4978580;28;20118;-81
2022/11/14 12:31:11;;;;;;;16.33;8.13;;;11.30;99.90;;;;;;4947456;28;20066;-81
2022/11/14 12:33:39;;;;;;;13.40;8.43;;;11.20;99.90;;;;;;4932557;28;20513;-81
2022/11/14 12:36:07;;;;;;;12.90;8.88;;;11.30;99.90;;;;;;4950728;28;20054;-81
2022/11/14 12:38:52;;;;;;;14.88;9.30;;;11.20;99.90;;;;;;4929726;28;20055;-81
2022/11/14 12:41:28;;;;;;;12.02;7.82;;;11.20;99.90;;;;;;4929215;28;20027;-81
2022/11/14 12:44:26;;;;;;;12.90;8.13;;;11.10;99.90;;;;;;4933494;28;20035;-81
2022/11/14 12:47:04;;;;;;;13.38;9.15;;;11.10;99.90;;;;;;4978283;28;20117;-81
2022/11/14 12:49:51;;;;;;;16.67;9.70;;;11.10;99.90;;;;;;4948664;28;20034;-81